createdAt,value
2019-04-07T00:01:58.328Z,167.53
2019-04-07T00:04:28.114Z,164.30
2019-04-07T00:06:57.766Z,157.33
2019-04-07T00:09:27.635Z,155.23
2019-04-07T00:11:57.165Z,152.60
2019-04-07T00:14:27.206Z,139.47
2019-04-07T00:16:56.946Z,133.10
2019-04-07T00:19:27.072Z,137.70
2019-04-07T00:21:56.761Z,131.83
2019-04-07T00:24:26.188Z,126.83
2019-04-07T00:26:55.802Z,121.37
2019-04-07T00:29:25.258Z,119.27
2019-04-07T00:31:54.663Z,112.83
2019-04-07T00:34:24.730Z,111.73
2019-04-07T00:36:54.202Z,108.20
2019-04-07T00:39:23.601Z,104.90
2019-04-07T00:41:53.033Z,100.07
2019-04-07T00:44:22.579Z,107.20
2019-04-07T00:46:52.571Z,103.90
2019-04-07T00:49:22.125Z,98.50
2019-04-07T00:51:52.973Z,101.10
2019-04-07T00:54:22.695Z,102.70
2019-04-07T00:56:52.224Z,100.07
2019-04-07T00:59:21.744Z,100.90
2019-04-07T01:01:51.442Z,96.80
2019-04-07T01:04:21.112Z,93.13
2019-04-07T01:06:50.676Z,95.77
2019-04-07T01:09:20.059Z,97.40
2019-04-07T01:11:49.601Z,100.33
2019-04-07T01:14:19.069Z,104.23
2019-04-07T01:16:48.534Z,107.83
2019-04-07T01:19:18.855Z,105.53
2019-04-07T01:21:48.552Z,98.53
2019-04-07T01:24:18.014Z,107.77
2019-04-07T01:26:48.141Z,109.37
2019-04-07T01:29:18.380Z,103.00
2019-04-07T01:31:49.452Z,107.03
2019-04-07T01:34:19.642Z,118.97
2019-04-07T01:36:49.252Z,113.53
2019-04-07T01:39:18.665Z,117.00
2019-04-07T01:41:56.233Z,112.00
2019-04-07T01:44:27.660Z,109.27
2019-04-07T01:47:02.541Z,110.77
2019-04-07T01:49:45.567Z,113.40
2019-04-07T01:52:22.703Z,115.00
2019-04-07T01:54:53.843Z,120.07
2019-04-07T01:57:43.025Z,125.13
2019-04-07T02:00:14.333Z,128.10
2019-04-07T02:03:00.214Z,123.77
2019-04-07T02:05:31.245Z,121.33
2019-04-07T02:08:05.520Z,123.50
2019-04-07T02:10:39.572Z,123.63
2019-04-07T02:13:11.047Z,121.57
2019-04-07T02:15:45.044Z,131.33
2019-04-07T02:18:16.375Z,131.90
2019-04-07T02:21:04.651Z,127.60
2019-04-07T02:23:52.911Z,119.90
2019-04-07T02:26:26.846Z,121.93
2019-04-07T02:29:14.338Z,127.20
2019-04-07T02:32:02.049Z,131.73
2019-04-07T02:34:36.237Z,142.83
2019-04-07T02:37:13.992Z,140.77
2019-04-07T02:39:51.106Z,142.80
2019-04-07T02:42:25.367Z,136.37
2019-04-07T02:44:57.357Z,150.37
2019-04-07T02:47:35.256Z,150.53
2019-04-07T02:50:12.770Z,157.97
2019-04-07T02:52:43.858Z,138.77
2019-04-07T02:55:21.850Z,137.87
2019-04-07T02:57:54.138Z,141.43
2019-04-07T03:00:25.530Z,133.80
2019-04-07T03:03:03.330Z,124.03
2019-04-07T03:05:37.841Z,117.67
2019-04-07T03:08:10.193Z,104.40
2019-04-07T03:10:47.381Z,100.37
2019-04-07T03:13:21.520Z,115.17
2019-04-07T03:15:52.829Z,107.33
2019-04-07T03:18:27.115Z,106.87
2019-04-07T03:21:04.140Z,114.73
2019-04-07T03:23:36.294Z,110.40
2019-04-07T03:26:07.957Z,114.77
2019-04-07T03:28:39.984Z,114.13
2019-04-07T03:31:22.473Z,115.37
2019-04-07T03:34:00.815Z,108.07
2019-04-07T03:37:09.585Z,111.80
2019-04-07T03:39:28.131Z,113.80
2019-04-07T03:42:02.950Z,116.40
2019-04-07T03:44:46.981Z,110.57
2019-04-07T03:47:30.190Z,111.23
2019-04-07T03:50:10.360Z,119.90
2019-04-07T03:52:58.487Z,116.40
2019-04-07T03:56:00.724Z,110.87
2019-04-07T04:01:40.179Z,112.87
2019-04-07T04:04:11.858Z,115.77
2019-04-07T04:07:17.864Z,114.30
2019-04-07T04:09:40.570Z,117.17
2019-04-07T04:12:29.939Z,112.23
2019-04-07T04:15:07.203Z,105.30
2019-04-07T04:17:37.053Z,110.90
2019-04-07T04:20:08.378Z,121.30
2019-04-07T04:22:39.357Z,123.57
2019-04-07T04:25:10.531Z,109.90
2019-04-07T04:27:40.207Z,111.87
2019-04-07T04:30:14.354Z,111.70
2019-04-07T04:32:43.861Z,108.83
2019-04-07T04:35:13.557Z,101.37
2019-04-07T04:37:48.746Z,99.53
2019-04-07T04:40:14.386Z,103.83
2019-04-07T04:42:44.382Z,100.93
2019-04-07T04:45:13.946Z,101.93
2019-04-07T04:47:43.404Z,95.07
2019-04-07T04:50:13.216Z,101.50
2019-04-07T04:52:42.861Z,99.00
2019-04-07T04:55:13.269Z,105.93
2019-04-07T04:57:42.867Z,110.93
2019-04-07T05:00:13.509Z,110.67
2019-04-07T05:02:44.186Z,124.80
2019-04-07T05:05:14.071Z,117.87
2019-04-07T05:07:55.224Z,114.97
2019-04-07T05:10:15.016Z,124.97
2019-04-07T05:12:44.597Z,121.93
2019-04-07T05:15:14.746Z,110.90
2019-04-07T05:17:44.570Z,117.33
2019-04-07T05:20:14.292Z,106.53
2019-04-07T05:22:44.350Z,106.70
2019-04-07T05:25:14.082Z,105.23
2019-04-07T05:27:43.671Z,107.87
2019-04-07T05:30:13.105Z,104.10
2019-04-07T05:32:43.131Z,107.17
2019-04-07T05:35:13.210Z,98.83
2019-04-07T05:37:43.357Z,96.80
2019-04-07T05:40:13.308Z,92.77
2019-04-07T05:42:43.455Z,93.93
2019-04-07T05:45:13.078Z,87.47
2019-04-07T05:47:47.288Z,89.10
2019-04-07T05:50:14.439Z,86.63
2019-04-07T05:52:44.020Z,89.90
2019-04-07T05:55:14.241Z,86.30
2019-04-07T05:57:45.319Z,82.80
2019-04-07T06:00:16.677Z,83.57
2019-04-07T06:02:46.943Z,86.17
2019-04-07T06:05:18.397Z,86.87
2019-04-07T06:07:48.119Z,82.23
2019-04-07T06:10:22.870Z,82.07
2019-04-07T06:12:51.759Z,80.47
2019-04-07T06:15:22.295Z,80.13
2019-04-07T06:17:52.265Z,80.10
2019-04-07T06:20:22.490Z,73.30
2019-04-07T06:22:53.652Z,70.23
2019-04-07T06:25:25.078Z,73.47
2019-04-07T06:27:54.687Z,73.70
2019-04-07T06:30:28.072Z,69.73
2019-04-07T06:32:56.917Z,70.03
2019-04-07T06:35:26.992Z,70.43
2019-04-07T06:37:59.372Z,70.80
2019-04-07T06:40:28.470Z,67.40
2019-04-07T06:42:58.108Z,66.87
2019-04-07T06:45:29.398Z,67.67
2019-04-07T06:48:02.554Z,67.30
2019-04-07T06:50:49.480Z,66.33
2019-04-07T06:53:18.357Z,64.47
2019-04-07T06:55:51.366Z,63.47
2019-04-07T06:58:28.464Z,60.50
2019-04-07T07:01:17.610Z,58.73
2019-04-07T07:04:09.438Z,57.27
2019-04-07T07:06:54.552Z,57.57
2019-04-07T07:09:28.889Z,57.57
2019-04-07T07:12:00.636Z,57.07
2019-04-07T07:14:40.504Z,56.60
2019-04-07T07:17:21.570Z,56.27
2019-04-07T07:20:12.384Z,57.13
2019-04-07T07:22:46.747Z,55.47
2019-04-07T07:25:15.626Z,55.93
2019-04-07T07:27:47.729Z,54.20
2019-04-07T07:30:18.343Z,55.03
2019-04-07T07:32:48.613Z,54.33
2019-04-07T07:35:18.176Z,56.00
2019-04-07T07:37:49.963Z,53.80
2019-04-07T07:40:21.225Z,53.60
2019-04-07T07:42:51.121Z,56.57
2019-04-07T07:45:20.930Z,53.80
2019-04-07T07:47:53.220Z,53.00
2019-04-07T07:50:21.566Z,51.13
2019-04-07T07:52:53.351Z,52.60
2019-04-07T07:55:22.477Z,50.70
2019-04-07T07:57:56.582Z,49.67
2019-04-07T08:00:23.042Z,51.07
2019-04-07T08:02:53.425Z,48.77
2019-04-07T08:05:23.866Z,47.30
2019-04-07T08:08:00.620Z,48.87
2019-04-07T08:10:30.249Z,46.97
2019-04-07T08:13:00.644Z,43.47
2019-04-07T08:15:32.648Z,45.60
2019-04-07T08:18:04.777Z,43.27
2019-04-07T08:20:33.909Z,41.10
2019-04-07T08:23:03.720Z,43.27
2019-04-07T08:25:33.578Z,44.47
2019-04-07T08:28:04.593Z,43.33
2019-04-07T08:30:34.306Z,42.03
2019-04-07T08:33:03.853Z,42.67
2019-04-07T08:35:37.770Z,41.83
2019-04-07T08:38:05.625Z,41.40
2019-04-07T08:40:37.475Z,41.20
2019-04-07T08:43:07.160Z,43.33
2019-04-07T08:45:38.309Z,39.20
2019-04-07T08:48:08.973Z,40.83
2019-04-07T08:50:40.952Z,38.10
2019-04-07T08:53:12.938Z,39.13
2019-04-07T08:55:41.743Z,39.27
2019-04-07T08:58:22.741Z,36.77
2019-04-07T09:00:53.595Z,37.30
2019-04-07T09:03:23.170Z,38.70
2019-04-07T09:05:56.531Z,38.13
2019-04-07T09:08:24.082Z,37.17
2019-04-07T09:10:59.325Z,39.33
2019-04-07T09:13:31.638Z,38.47
2019-04-07T09:16:04.702Z,39.97
2019-04-07T09:19:00.034Z,38.70
2019-04-07T09:21:37.239Z,38.33
2019-04-07T09:24:10.089Z,40.73
2019-04-07T09:26:47.131Z,37.70
2019-04-07T09:29:35.304Z,37.13
2019-04-07T09:32:22.543Z,37.37
2019-04-07T09:34:59.279Z,38.93
2019-04-07T09:37:31.084Z,38.07
2019-04-07T09:40:04.416Z,38.43
2019-04-07T09:42:35.631Z,37.73
2019-04-07T09:45:10.830Z,38.07
2019-04-07T09:47:41.380Z,38.63
2019-04-07T09:50:26.897Z,37.67
2019-04-07T09:53:09.923Z,37.23
2019-04-07T09:55:50.525Z,37.83
2019-04-07T09:58:24.991Z,37.33
2019-04-07T10:00:57.664Z,36.90
2019-04-07T10:03:32.037Z,37.40
2019-04-07T10:06:04.693Z,35.87
2019-04-07T10:08:36.320Z,35.77
2019-04-07T10:11:19.733Z,36.07
2019-04-07T10:13:51.161Z,34.77
2019-04-07T10:16:22.686Z,35.27
2019-04-07T10:19:00.668Z,35.00
2019-04-07T10:21:48.484Z,35.90
2019-04-07T10:24:25.861Z,35.70
2019-04-07T10:26:57.178Z,35.90
2019-04-07T10:29:31.873Z,35.20
2019-04-07T10:32:09.203Z,34.53
2019-04-07T10:34:40.773Z,34.67
2019-04-07T10:37:24.405Z,34.47
2019-04-07T10:40:16.806Z,35.63
2019-04-07T10:42:49.155Z,34.57
2019-04-07T10:45:20.710Z,34.80
2019-04-07T10:48:09.158Z,33.63
2019-04-07T10:50:59.115Z,36.17
2019-04-07T10:53:37.008Z,34.90
2019-04-07T10:56:08.873Z,35.30
2019-04-07T10:58:56.884Z,34.50
2019-04-07T11:01:27.966Z,34.43
2019-04-07T11:03:59.431Z,34.10
2019-04-07T11:06:30.625Z,34.63
2019-04-07T11:09:01.753Z,34.17
2019-04-07T11:11:49.173Z,33.27
2019-04-07T11:14:26.938Z,33.80
2019-04-07T11:17:08.075Z,32.70
2019-04-07T11:22:44.229Z,32.80
2019-04-07T11:25:16.438Z,34.27
2019-04-07T11:27:51.080Z,31.67
2019-04-07T11:30:28.874Z,31.57
2019-04-07T11:33:00.825Z,31.23
2019-04-07T11:38:23.470Z,31.35
2019-04-07T11:41:01.495Z,29.92
2019-04-07T11:43:48.926Z,29.03
2019-04-07T11:46:26.309Z,28.33
2019-04-07T11:49:00.838Z,27.77
2019-04-07T11:51:32.447Z,26.37
2019-04-07T11:54:06.649Z,27.37
2019-04-07T11:56:38.312Z,25.60
2019-04-07T11:59:12.108Z,23.12
2019-04-07T12:01:46.078Z,21.37
2019-04-07T12:04:28.055Z,24.17
2019-04-07T12:07:18.862Z,24.27
2019-04-07T12:09:47.747Z,25.25
2019-04-07T12:12:18.915Z,25.65
2019-04-07T12:14:52.474Z,23.43
2019-04-07T12:17:42.047Z,22.63
2019-04-07T12:20:21.349Z,21.23
2019-04-07T12:22:52.826Z,22.80
2019-04-07T12:25:37.265Z,21.77
2019-04-07T12:28:23.506Z,21.40
2019-04-07T12:31:03.953Z,20.95
2019-04-07T12:33:39.326Z,20.93
2019-04-07T12:36:12.975Z,20.77
2019-04-07T12:38:51.036Z,19.60
2019-04-07T12:41:34.714Z,21.23
2019-04-07T12:44:06.213Z,21.23
2019-04-07T12:46:37.713Z,22.87
2019-04-07T12:49:09.688Z,22.83
2019-04-07T12:51:40.932Z,21.63
2019-04-07T12:54:12.091Z,20.23
2019-04-07T12:56:52.362Z,20.07
2019-04-07T12:59:39.680Z,19.87
2019-04-07T13:02:29.160Z,21.47
2019-04-07T13:05:05.284Z,16.27
2019-04-07T13:07:37.591Z,16.83
2019-04-07T13:10:26.854Z,15.40
2019-04-07T13:13:01.598Z,15.90
2019-04-07T13:15:33.567Z,15.45
2019-04-07T13:18:08.616Z,15.43
2019-04-07T13:20:40.770Z,14.83
2019-04-07T13:23:21.139Z,14.93
2019-04-07T13:26:02.114Z,14.17
2019-04-07T13:28:33.419Z,15.55
2019-04-07T13:31:16.590Z,14.60
2019-04-07T13:33:51.124Z,14.20
2019-04-07T13:36:37.777Z,15.87
2019-04-07T13:39:10.211Z,12.63
2019-04-07T13:41:56.302Z,12.73
2019-04-07T13:44:41.657Z,13.80
2019-04-07T13:47:13.037Z,13.53
2019-04-07T13:49:55.403Z,13.47
2019-04-07T13:52:34.919Z,14.70
2019-04-07T13:55:25.043Z,13.17
2019-04-07T13:57:59.491Z,13.37
2019-04-07T14:00:48.223Z,15.23
2019-04-07T14:03:25.551Z,13.93
2019-04-07T14:05:56.842Z,13.80
2019-04-07T14:08:29.939Z,14.07
2019-04-07T14:11:01.440Z,14.07
2019-04-07T14:13:51.247Z,16.43
2019-04-07T14:16:22.409Z,14.10
2019-04-07T14:18:54.540Z,13.10
2019-04-07T14:21:26.344Z,13.93
2019-04-07T14:23:58.169Z,14.07
2019-04-07T14:26:46.697Z,15.37
2019-04-07T14:29:18.508Z,14.77
2019-04-07T14:32:05.630Z,14.87
2019-04-07T14:34:53.207Z,16.17
2019-04-07T14:37:24.250Z,14.43
2019-04-07T14:40:11.893Z,23.10
2019-04-07T14:42:44.447Z,18.40
2019-04-07T14:45:28.338Z,17.43
2019-04-07T14:48:02.171Z,17.43
2019-04-07T14:50:33.483Z,15.10
2019-04-07T14:53:10.994Z,15.47
2019-04-07T14:55:43.102Z,16.50
2019-04-07T14:58:18.958Z,14.53
2019-04-07T15:00:50.895Z,15.23
2019-04-07T15:03:21.333Z,15.80
2019-04-07T15:05:55.145Z,16.13
2019-04-07T15:08:55.243Z,14.83
2019-04-07T15:11:32.399Z,14.53
2019-04-07T15:14:02.733Z,15.33
2019-04-07T15:16:36.738Z,16.00
2019-04-07T15:19:06.233Z,15.77
2019-04-07T15:21:36.298Z,16.73
2019-04-07T15:24:07.503Z,18.03
2019-04-07T15:26:40.049Z,17.67
2019-04-07T15:29:10.811Z,20.60
2019-04-07T15:31:40.587Z,19.97
2019-04-07T15:34:11.933Z,18.97
2019-04-07T15:36:41.501Z,19.93
2019-04-07T15:39:11.064Z,20.87
2019-04-07T15:41:42.488Z,20.80
2019-04-07T15:44:14.059Z,20.07
2019-04-07T15:46:43.705Z,27.10
2019-04-07T15:49:13.352Z,28.07
2019-04-07T15:51:43.627Z,28.63
2019-04-07T15:54:13.510Z,30.27
2019-04-07T15:56:45.429Z,35.07
2019-04-07T15:59:17.930Z,37.90
2019-04-07T16:01:47.261Z,38.80
2019-04-07T16:04:16.797Z,39.80
2019-04-07T16:06:48.726Z,39.57
2019-04-07T16:09:29.627Z,39.53
2019-04-07T16:11:49.590Z,40.47
2019-04-07T16:14:21.968Z,42.23
2019-04-07T16:16:52.799Z,40.53
2019-04-07T16:19:34.901Z,43.47
2019-04-07T16:21:53.828Z,47.90
2019-04-07T16:24:23.324Z,46.57
2019-04-07T16:26:52.747Z,49.03
2019-04-07T16:29:22.342Z,53.67
2019-04-07T16:31:51.889Z,53.87
2019-04-07T16:34:22.877Z,52.47
2019-04-07T16:36:55.128Z,54.23
2019-04-07T16:39:23.441Z,53.87
2019-04-07T16:41:53.395Z,54.20
2019-04-07T16:44:23.326Z,54.97
2019-04-07T16:46:57.172Z,54.87
2019-04-07T16:49:24.680Z,54.13
2019-04-07T16:51:54.140Z,52.73
2019-04-07T16:54:24.464Z,48.97
2019-04-07T16:56:57.089Z,47.77
2019-04-07T16:59:25.381Z,48.33
2019-04-07T17:01:55.022Z,48.87
2019-04-07T17:04:25.687Z,47.43
2019-04-07T17:07:03.295Z,44.93
2019-04-07T17:09:28.237Z,48.07
2019-04-07T17:11:57.846Z,50.43
2019-04-07T17:14:31.027Z,48.70
2019-04-07T17:16:59.094Z,49.57
2019-04-07T17:19:30.176Z,50.60
2019-04-07T17:22:00.759Z,48.20
2019-04-07T17:24:30.731Z,47.93
2019-04-07T17:27:01.016Z,47.57
2019-04-07T17:29:32.152Z,50.07
2019-04-07T17:32:02.799Z,48.70
2019-04-07T17:34:33.654Z,49.23
2019-04-07T17:37:03.994Z,49.10
2019-04-07T17:39:42.183Z,49.17
2019-04-07T17:42:12.621Z,51.10
2019-04-07T17:44:47.815Z,50.30
2019-04-07T17:47:36.660Z,51.23
2019-04-07T17:50:20.982Z,49.83
2019-04-07T17:52:54.679Z,56.87
2019-04-07T17:55:27.770Z,53.67
2019-04-07T17:58:01.652Z,53.13
2019-04-07T18:00:32.895Z,53.80
2019-04-07T18:03:11.541Z,60.67
2019-04-07T18:05:45.869Z,60.17
2019-04-07T18:08:19.868Z,58.93
2019-04-07T18:10:51.724Z,62.83
2019-04-07T18:13:46.004Z,61.40
2019-04-07T18:16:25.613Z,66.00
2019-04-07T18:18:59.682Z,69.17
2019-04-07T18:21:31.416Z,67.70
2019-04-07T18:24:08.370Z,68.93
2019-04-07T18:26:44.797Z,63.20
2019-04-07T18:29:14.955Z,62.30
2019-04-07T18:32:01.979Z,63.33
2019-04-07T18:34:39.715Z,67.27
2019-04-07T18:37:11.697Z,64.53
2019-04-07T18:40:01.748Z,74.70
2019-04-07T18:42:48.998Z,67.93
2019-04-07T18:45:26.109Z,61.20
2019-04-07T18:48:08.095Z,61.90
2019-04-07T18:50:57.590Z,71.40
2019-04-07T18:53:28.907Z,66.20
2019-04-07T18:56:16.275Z,68.13
2019-04-07T18:58:50.876Z,69.37
2019-04-07T19:01:27.033Z,73.37
2019-04-07T19:04:01.066Z,73.37
2019-04-07T19:06:51.555Z,79.10
2019-04-07T19:09:33.097Z,79.10
2019-04-07T19:12:22.940Z,89.20
2019-04-07T19:15:03.781Z,84.13
2019-04-07T19:17:38.534Z,86.73
2019-04-07T19:20:12.978Z,95.87
2019-04-07T19:22:51.343Z,102.90
2019-04-07T19:25:29.139Z,112.93
2019-04-07T19:28:07.799Z,110.43
2019-04-07T19:30:46.861Z,113.33
2019-04-07T19:33:17.968Z,119.47
2019-04-07T19:35:49.794Z,118.93
2019-04-07T19:38:23.344Z,123.70
2019-04-07T19:41:06.781Z,133.60
2019-04-07T19:43:41.849Z,128.60
2019-04-07T19:46:28.167Z,126.07
2019-04-07T19:49:13.926Z,131.77
2019-04-07T19:51:49.299Z,132.13
2019-04-07T19:54:23.546Z,123.37
2019-04-07T19:57:04.768Z,122.63
2019-04-07T19:59:39.370Z,127.10
2019-04-07T20:02:15.312Z,126.90
2019-04-07T20:05:05.799Z,121.53
2019-04-07T20:07:39.801Z,118.70
2019-04-07T20:10:28.204Z,110.87
2019-04-07T20:13:00.389Z,112.73
2019-04-07T20:15:39.051Z,106.90
2019-04-07T20:18:19.160Z,112.13
2019-04-07T20:20:53.774Z,106.70
2019-04-07T20:23:41.453Z,99.63
2019-04-07T20:26:22.089Z,102.00
2019-04-07T20:28:52.089Z,103.87
2019-04-07T20:31:35.098Z,98.83
2019-04-07T20:34:12.302Z,100.70
2019-04-07T20:36:44.362Z,100.17
2019-04-07T20:39:19.284Z,97.67
2019-04-07T20:41:53.363Z,97.50
2019-04-07T20:44:39.891Z,108.83
2019-04-07T20:47:10.994Z,108.17
2019-04-07T20:49:58.854Z,101.77
2019-04-07T20:52:32.038Z,109.23
2019-04-07T20:55:09.853Z,111.67
2019-04-07T20:57:43.524Z,104.63
2019-04-07T21:00:14.841Z,110.97
2019-04-07T21:05:34.500Z,91.27
2019-04-07T21:08:17.584Z,94.87
2019-04-07T21:10:50.456Z,91.43
2019-04-07T21:13:37.771Z,91.97
2019-04-07T21:16:08.882Z,97.33
2019-04-07T21:18:46.878Z,95.37
2019-04-07T21:21:24.499Z,97.87
2019-04-07T21:24:18.195Z,100.03
2019-04-07T21:26:47.954Z,103.40
2019-04-07T21:29:34.522Z,102.13
2019-04-07T21:32:08.825Z,100.43
2019-04-07T21:34:38.604Z,100.93
2019-04-07T21:37:13.320Z,97.37
2019-04-07T21:39:42.479Z,96.50
2019-04-07T21:42:18.666Z,94.03
2019-04-07T21:44:51.807Z,100.17
2019-04-07T21:47:26.985Z,117.13
2019-04-07T21:50:10.008Z,120.17
2019-04-07T21:52:55.250Z,118.93
2019-04-07T21:55:28.757Z,121.33
2019-04-07T21:58:16.657Z,128.10
2019-04-07T22:00:51.113Z,124.30
2019-04-07T22:03:31.311Z,131.90
2019-04-07T22:06:14.532Z,123.83
2019-04-07T22:09:00.899Z,132.57
2019-04-07T22:11:30.571Z,134.43
2019-04-07T22:14:00.992Z,131.03
2019-04-07T22:16:31.873Z,137.47
2019-04-07T22:19:01.543Z,140.10
2019-04-07T22:21:31.959Z,145.67
2019-04-07T22:24:02.196Z,149.60
2019-04-07T22:26:33.477Z,137.33
2019-04-07T22:29:04.410Z,126.70
2019-04-07T22:31:51.562Z,123.87
2019-04-07T22:34:21.189Z,149.27
2019-04-07T22:36:50.618Z,137.60
2019-04-07T22:39:20.527Z,145.67
2019-04-07T22:41:50.464Z,146.57
2019-04-07T22:44:21.880Z,144.83
2019-04-07T22:46:52.334Z,147.77
2019-04-07T22:49:21.955Z,150.27
2019-04-07T22:51:53.821Z,170.20
2019-04-07T22:54:22.415Z,162.07
2019-04-07T22:56:52.278Z,160.13
2019-04-07T22:59:21.915Z,167.90
2019-04-07T23:01:51.537Z,160.07
2019-04-07T23:04:23.619Z,152.60
2019-04-07T23:06:53.013Z,151.13
2019-04-07T23:09:23.089Z,143.50
2019-04-07T23:11:52.627Z,147.87
2019-04-07T23:14:22.118Z,144.93
2019-04-07T23:16:52.026Z,142.70
2019-04-07T23:19:21.545Z,136.57
2019-04-07T23:21:51.295Z,143.40
2019-04-07T23:24:21.293Z,159.17
2019-04-07T23:26:51.030Z,168.27
2019-04-07T23:29:20.525Z,171.93
2019-04-07T23:31:50.138Z,177.40
2019-04-07T23:34:19.594Z,169.10
2019-04-07T23:36:49.844Z,154.80
2019-04-07T23:39:19.569Z,178.37
2019-04-07T23:41:49.157Z,181.63
2019-04-07T23:44:18.632Z,183.33
2019-04-07T23:46:48.816Z,167.13
2019-04-07T23:49:19.108Z,132.30
2019-04-07T23:51:48.558Z,134.63
2019-04-07T23:54:18.374Z,139.40
2019-04-07T23:56:47.895Z,151.33
2019-04-07T23:59:17.439Z,186.60
